Time;durP1;ratioP1;P1;durP2;ratioP2;P2;SDS_P1;SDS_P2;PMS_P1;PMS_P2;Temp;Humidity;BMP_temperature;BMP_pressure;BME280_temperature;BME280_humidity;BME280_pressure;Samples;Min_cycle;Max_cycle;Signal;HPM_P1;HPM_P2
2021/10/23 00:01:20;;;;;;;17.75;15.30;;;;;;;29.50;23.32;94725.09;4956186;29;20051;-43
2021/10/23 00:03:47;;;;;;;19.25;15.32;;;;;;;29.29;23.82;94732.16;4956142;29;20051;-43
2021/10/23 00:06:14;;;;;;;19.52;15.57;;;;;;;29.01;24.17;94738.53;4955754;29;20051;-43
2021/10/23 00:08:41;;;;;;;17.98;15.55;;;;;;;29.23;23.91;94723.00;4955786;29;20055;-43
2021/10/23 00:11:09;;;;;;;16.88;14.52;;;;;;;29.02;24.30;94723.91;4956569;29;20063;-42
2021/10/23 00:13:36;;;;;;;18.98;15.68;;;;;;;28.90;24.42;94729.00;4955593;29;20043;-42
2021/10/23 00:16:03;;;;;;;17.88;15.80;;;;;;;28.97;24.25;94726.25;4955448;29;20054;-42
2021/10/23 00:18:30;;;;;;;18.40;15.90;;;;;;;28.56;25.04;94724.16;4944762;29;20056;-44
2021/10/23 00:20:57;;;;;;;17.48;15.68;;;;;;;28.66;24.56;94723.34;4936796;29;20059;-46
2021/10/23 00:23:24;;;;;;;17.02;15.18;;;;;;;28.47;25.06;94713.06;4937091;28;20480;-43
2021/10/23 00:25:51;;;;;;;17.55;15.70;;;;;;;28.64;24.68;94712.22;4955475;29;20066;-44
2021/10/23 00:28:18;;;;;;;17.77;15.27;;;;;;;28.49;24.78;94714.22;4955957;29;20043;-45
2021/10/23 00:30:46;;;;;;;16.85;14.98;;;;;;;28.81;24.56;94719.41;4956240;29;20340;-44
2021/10/23 00:33:13;;;;;;;16.70;14.93;;;;;;;28.64;25.01;94709.53;4956300;28;20050;-42
2021/10/23 00:35:40;;;;;;;17.20;15.45;;;;;;;28.63;24.84;94708.00;4955622;29;20047;-43
2021/10/23 00:38:07;;;;;;;22.73;15.65;;;;;;;28.23;25.48;94717.38;4955356;29;20043;-42
2021/10/23 00:40:34;;;;;;;17.85;15.70;;;;;;;28.44;24.84;94716.56;4954891;29;20085;-43
2021/10/23 00:43:01;;;;;;;18.15;14.82;;;;;;;28.90;24.59;94710.19;4956012;29;20047;-42
2021/10/23 00:45:28;;;;;;;17.10;15.13;;;;;;;28.43;25.29;94706.97;4956535;28;20062;-42
2021/10/23 00:47:55;;;;;;;17.85;14.60;;;;;;;28.72;24.56;94702.19;4959348;29;20054;-43
2021/10/23 00:50:23;;;;;;;17.10;15.05;;;;;;;28.75;24.54;94702.16;4959683;28;20058;-42
2021/10/23 00:52:50;;;;;;;17.70;15.57;;;;;;;28.69;24.77;94694.91;4959635;29;20446;-43
2021/10/23 00:55:18;;;;;;;17.35;15.15;;;;;;;28.62;24.85;94700.31;4958048;28;20376;-43
2021/10/23 00:57:45;;;;;;;16.83;14.90;;;;;;;28.60;24.68;94687.25;4958103;29;20362;-42
2021/10/23 01:00:12;;;;;;;16.70;14.90;;;;;;;28.63;24.98;94697.25;4958845;29;20067;-42
2021/10/23 01:02:40;;;;;;;17.95;16.05;;;;;;;28.69;24.53;94694.91;4958384;29;20055;-42
2021/10/23 01:05:08;;;;;;;19.95;15.98;;;;;;;28.61;24.55;94694.16;4959387;29;20043;-42
2021/10/23 01:07:36;;;;;;;21.08;16.08;;;;;;;28.67;24.89;94700.69;4958829;29;20467;-41
2021/10/23 01:10:09;;;;;;;18.48;15.27;;;;;;;28.83;24.51;94706.31;4959113;29;20043;-42
2021/10/23 01:12:41;;;;;;;17.67;15.18;;;;;;;28.42;24.95;94702.75;4959251;29;20364;-43
2021/10/23 01:15:26;;;;;;;16.90;15.10;;;;;;;28.78;24.38;94709.44;4958887;29;20063;-43
2021/10/23 01:17:54;;;;;;;18.48;15.45;;;;;;;28.43;25.14;94698.88;4958614;29;20063;-43
2021/10/23 01:20:22;;;;;;;18.95;16.13;;;;;;;28.43;25.09;94698.88;4958970;29;20051;-46
2021/10/23 01:22:50;;;;;;;16.63;14.93;;;;;;;28.63;24.70;94699.94;4958531;29;20063;-43
2021/10/23 01:25:19;;;;;;;17.65;15.40;;;;;;;28.60;25.06;94703.38;4958414;28;20375;-43
2021/10/23 01:27:46;;;;;;;16.60;14.88;;;;;;;28.47;24.74;94699.63;4958391;29;20051;-45
2021/10/23 01:30:16;;;;;;;17.40;15.55;;;;;;;28.74;24.50;94703.31;4959227;28;20043;-43
2021/10/23 01:32:43;;;;;;;17.45;14.38;;;;;;;28.49;24.81;94703.47;4958721;29;20043;-43
2021/10/23 01:35:10;;;;;;;16.27;14.48;;;;;;;28.39;24.84;94698.16;4958840;29;20054;-43
2021/10/23 01:37:43;;;;;;;16.23;13.80;;;;;;;28.07;25.29;94699.00;4948595;29;20051;-45
2021/10/23 01:40:13;;;;;;;18.88;15.55;;;;;;;28.06;25.48;94697.47;4939310;29;20051;-43
2021/10/23 01:42:40;;;;;;;16.88;14.73;;;;;;;28.15;25.18;94705.91;4939502;29;20066;-43
2021/10/23 01:45:09;;;;;;;16.63;14.85;;;;;;;28.17;25.39;94702.81;4939544;29;20051;-44
2021/10/23 01:47:40;;;;;;;16.35;14.18;;;;;;;28.43;24.85;94698.88;4952518;29;20082;-51
2021/10/23 01:50:13;;;;;;;17.13;15.43;;;;;;;28.49;25.02;94702.69;4958366;29;20054;-42
2021/10/23 01:52:41;;;;;;;19.83;15.90;;;;;;;28.43;24.95;94698.88;4958604;29;20128;-42
2021/10/23 01:55:12;;;;;;;16.58;14.77;;;;;;;28.29;25.32;94698.94;4958160;28;20074;-44
2021/10/23 01:57:40;;;;;;;15.73;13.90;;;;;;;28.01;25.65;94711.31;4957861;28;20066;-44
2021/10/23 02:00:09;;;;;;;16.48;14.52;;;;;;;27.86;25.87;94704.47;4958187;29;20406;-48
2021/10/23 02:02:39;;;;;;;;;;;;;;;28.43;24.96;94709.66;4958810;29;20054;-44
2021/10/23 02:05:07;;;;;;;16.27;14.07;;;;;;;28.48;24.62;94712.69;4958320;29;19914;-44
2021/10/23 02:07:34;;;;;;;15.27;13.43;;;;;;;28.19;25.01;94706.66;4957224;29;20378;-43
2021/10/23 02:10:03;;;;;;;18.52;13.35;;;;;;;28.29;25.21;94715.06;4957722;29;20046;-42
2021/10/23 02:12:30;;;;;;;15.82;14.02;;;;;;;28.16;25.26;94720.09;4957682;29;20046;-42
2021/10/23 02:14:57;;;;;;;16.65;14.63;;;;;;;28.13;25.21;94724.34;4957680;29;20051;-42
2021/10/23 02:17:25;;;;;;;15.18;13.57;;;;;;;28.19;24.96;94728.16;4957803;29;20450;-43
2021/10/23 02:19:52;;;;;;;15.63;12.77;;;;;;;28.16;24.73;94720.09;4957544;29;20058;-43
2021/10/23 02:22:19;;;;;;;15.98;13.57;;;;;;;28.00;24.97;94720.53;4957911;29;20077;-42
2021/10/23 02:24:46;;;;;;;17.08;12.98;;;;;;;28.08;24.96;94726.63;4957379;28;20058;-42
2021/10/23 02:27:13;;;;;;;15.32;13.13;;;;;;;28.42;24.81;94724.25;4957611;29;20051;-43
2021/10/23 02:29:40;;;;;;;15.20;13.60;;;;;;;28.35;24.49;94735.00;4956863;29;20482;-43
2021/10/23 02:32:07;;;;;;;14.85;13.25;;;;;;;28.30;24.82;94730.03;4957790;29;20441;-43
2021/10/23 02:34:34;;;;;;;16.63;13.13;;;;;;;28.11;24.72;94737.41;4957863;29;20062;-42
2021/10/23 02:37:02;;;;;;;16.50;12.55;;;;;;;28.11;24.77;94732.03;4957441;29;20047;-43
2021/10/23 02:39:29;;;;;;;17.17;12.30;;;;;;;28.02;25.05;94738.94;4957254;29;20745;-43
2021/10/23 02:41:56;;;;;;;14.90;13.38;;;;;;;27.97;24.65;94732.06;4957340;29;20051;-43
2021/10/23 02:44:23;;;;;;;17.60;13.02;;;;;;;27.97;24.98;94733.97;4957574;29;20047;-42
2021/10/23 02:46:50;;;;;;;15.65;13.40;;;;;;;28.10;25.01;94719.72;4957292;29;20050;-48
2021/10/23 02:49:17;;;;;;;16.70;14.65;;;;;;;28.17;24.84;94730.47;4957278;29;20058;-47
2021/10/23 02:51:45;;;;;;;15.85;14.23;;;;;;;27.85;25.07;94729.78;4957386;29;20062;-50
2021/10/23 02:54:12;;;;;;;15.93;14.27;;;;;;;27.88;25.11;94731.72;4956796;28;20446;-49
2021/10/23 02:56:39;;;;;;;15.55;13.38;;;;;;;27.71;25.39;94740.56;4953643;29;20051;-50
2021/10/23 02:59:06;;;;;;;16.30;13.75;;;;;;;27.50;25.27;94742.06;4957193;28;20047;-49
2021/10/23 03:01:33;;;;;;;14.85;13.25;;;;;;;27.67;25.08;94734.44;4957191;29;20470;-42
2021/10/23 03:04:01;;;;;;;16.08;13.45;;;;;;;27.79;25.16;94734.00;4957437;29;20378;-42
2021/10/23 03:06:28;;;;;;;16.33;13.45;;;;;;;27.60;25.18;94735.94;4956929;29;20050;-43
2021/10/23 03:08:55;;;;;;;14.98;13.20;;;;;;;27.56;25.06;94735.16;4956201;28;20074;-42
2021/10/23 03:11:22;;;;;;;16.60;13.52;;;;;;;27.52;25.23;94742.47;4957073;29;20055;-42
2021/10/23 03:13:49;;;;;;;15.45;12.65;;;;;;;27.43;25.22;94742.09;4957061;29;20050;-42
2021/10/23 03:16:16;;;;;;;17.02;13.25;;;;;;;27.48;25.27;94744.38;4956623;29;20485;-42
2021/10/23 03:18:44;;;;;;;15.75;13.13;;;;;;;27.72;25.06;94736.72;4956646;29;20055;-43
2021/10/23 03:21:11;;;;;;;15.20;12.93;;;;;;;27.63;25.51;94729.84;4956336;29;20054;-42
2021/10/23 03:23:38;;;;;;;14.27;12.80;;;;;;;27.91;24.94;94734.38;4956317;28;20051;-43
2021/10/23 03:26:06;;;;;;;18.17;13.23;;;;;;;27.73;25.28;94738.25;4956836;29;20082;-44
2021/10/23 03:28:33;;;;;;;17.05;12.95;;;;;;;27.54;25.30;94740.16;4955359;29;20051;-44
2021/10/23 03:31:00;;;;;;;13.82;12.32;;;;;;;27.57;25.13;94735.94;4956821;29;20043;-42
2021/10/23 03:33:27;;;;;;;15.75;12.57;;;;;;;27.75;24.78;94730.56;4955996;29;20347;-43
2021/10/23 03:35:54;;;;;;;13.40;12.00;;;;;;;27.64;25.28;94731.38;4956341;29;20541;-43
2021/10/23 03:38:21;;;;;;;13.60;12.20;;;;;;;27.66;24.80;94736.34;4956628;29;20054;-42
2021/10/23 03:40:49;;;;;;;13.07;11.63;;;;;;;27.52;25.27;94755.88;4956388;29;20058;-42
2021/10/23 03:43:16;;;;;;;13.52;11.95;;;;;;;27.56;24.87;94751.28;4956511;29;20043;-43
2021/10/23 03:45:43;;;;;;;14.02;12.55;;;;;;;27.49;25.12;94747.84;4956244;29;20055;-43
2021/10/23 03:48:11;;;;;;;13.38;12.07;;;;;;;27.48;25.17;94749.75;4956279;29;20043;-43
2021/10/23 03:50:38;;;;;;;14.65;11.48;;;;;;;27.56;25.13;94753.97;4956651;28;20584;-42
2021/10/23 03:53:05;;;;;;;14.57;11.82;;;;;;;27.23;25.34;94749.75;4955815;29;20059;-43
2021/10/23 03:55:32;;;;;;;14.30;11.30;;;;;;;27.49;25.00;94758.56;4955568;28;20378;-43
2021/10/23 03:57:59;;;;;;;13.68;11.55;;;;;;;27.60;24.75;94762.03;4956075;29;20051;-43
2021/10/23 04:00:27;;;;;;;15.10;12.02;;;;;;;27.46;24.95;94756.66;4955929;29;20055;-42
2021/10/23 04:02:54;;;;;;;14.48;11.13;;;;;;;28.19;24.79;94754.25;4958692;28;20046;-43
2021/10/23 04:05:21;;;;;;;12.27;10.60;;;;;;;29.41;23.63;94749.78;4959624;28;20056;-42
2021/10/23 04:07:48;;;;;;;11.65;10.48;;;;;;;30.20;22.38;94747.91;4944116;28;20047;-45
2021/10/23 04:10:16;;;;;;;13.18;11.10;;;;;;;29.93;22.50;94747.78;4942906;29;20474;-49
2021/10/23 04:12:43;;;;;;;11.82;10.45;;;;;;;28.45;24.15;94751.13;4952060;29;20371;-43
2021/10/23 04:15:10;;;;;;;13.45;10.45;;;;;;;29.30;23.20;94749.84;4955817;29;20051;-44
2021/10/23 04:17:37;;;;;;;10.73;9.63;;;;;;;30.27;22.02;94760.53;4955857;29;20047;-43
2021/10/23 04:20:05;;;;;;;14.25;10.77;;;;;;;30.59;21.46;94750.13;4953862;28;20058;-45
2021/10/23 04:22:33;;;;;;;11.38;9.68;;;;;;;30.88;21.24;94749.78;4951403;29;20044;-45
2021/10/23 04:25:00;;;;;;;12.55;10.48;;;;;;;30.68;21.24;94747.72;4949269;28;20058;-49
2021/10/23 04:27:27;;;;;;;11.98;9.80;;;;;;;30.68;21.42;94757.75;4956318;29;20050;-44
2021/10/23 04:29:54;;;;;;;11.18;9.93;;;;;;;30.74;21.16;94760.78;4955521;29;20377;-41
2021/10/23 04:32:21;;;;;;;15.00;10.32;;;;;;;30.57;21.41;94760.56;4956294;29;20047;-42
2021/10/23 04:34:48;;;;;;;12.13;9.05;;;;;;;30.87;20.95;94759.03;4955866;29;20051;-42
2021/10/23 04:37:16;;;;;;;11.80;9.45;;;;;;;31.94;19.81;94763.56;4951796;29;20359;-52
2021/10/23 04:39:43;;;;;;;13.60;9.48;;;;;;;32.47;19.18;94762.56;4937531;29;20062;-47
2021/10/23 04:42:10;;;;;;;11.02;9.70;;;;;;;32.60;19.18;94759.25;4943924;28;20050;-44
2021/10/23 04:44:37;;;;;;;11.93;9.00;;;;;;;32.58;19.62;94764.31;4944779;28;20054;-50
2021/10/23 04:47:04;;;;;;;10.55;9.38;;;;;;;31.89;19.69;94767.50;4955978;29;20062;-41
2021/10/23 04:49:31;;;;;;;11.07;9.60;;;;;;;31.69;19.99;94758.56;4955431;29;20058;-43
2021/10/23 04:51:59;;;;;;;10.70;9.60;;;;;;;31.52;20.36;94773.91;4955960;28;20054;-49
2021/10/23 04:54:26;;;;;;;12.68;9.88;;;;;;;31.41;20.05;94775.25;4944537;28;20091;-45
2021/10/23 04:56:53;;;;;;;10.20;9.20;;;;;;;31.43;20.10;94772.91;4955749;29;20054;-50
2021/10/23 04:59:20;;;;;;;10.55;9.50;;;;;;;31.52;20.26;94781.25;4954726;29;20058;-54
2021/10/23 05:01:47;;;;;;;14.00;10.60;;;;;;;31.83;20.06;94779.22;4955331;29;20047;-44
2021/10/23 05:04:14;;;;;;;13.52;9.98;;;;;;;31.97;19.92;94772.78;4955385;29;20482;-43
2021/10/23 05:06:41;;;;;;;13.70;10.10;;;;;;;31.64;20.06;94779.91;4955342;29;20463;-47
2021/10/23 05:09:08;;;;;;;11.77;10.15;;;;;;;31.66;20.19;94783.72;4954382;29;20339;-49
2021/10/23 05:11:35;;;;;;;15.95;10.95;;;;;;;31.69;20.30;94796.41;4954976;29;20478;-45
2021/10/23 05:14:02;;;;;;;14.27;11.07;;;;;;;31.69;20.00;94801.81;4955729;29;20058;-45
2021/10/23 05:16:29;;;;;;;15.60;11.35;;;;;;;31.55;20.30;94802.03;4955467;29;20047;-42
2021/10/23 05:18:57;;;;;;;14.20;10.98;;;;;;;31.79;20.16;94811.72;4958521;28;20062;-51
2021/10/23 05:21:24;;;;;;;15.30;10.43;;;;;;;31.50;20.33;94811.38;4954752;29;20054;-42
2021/10/23 05:23:54;;;;;;;14.02;10.85;;;;;;;31.31;20.39;94814.00;4954811;28;20047;-44
2021/10/23 05:26:22;;;;;;;16.77;11.27;;;;;;;31.45;20.35;94817.22;4955537;29;20055;-45
2021/10/23 05:28:49;;;;;;;13.98;11.00;;;;;;;31.65;20.19;94817.31;4955045;29;20043;-44
2021/10/23 05:31:16;;;;;;;13.32;11.10;;;;;;;31.70;20.26;94814.13;4955466;28;20062;-46
2021/10/23 05:33:43;;;;;;;15.10;10.88;;;;;;;31.70;19.96;94813.38;4959012;28;20058;-48
2021/10/23 05:36:10;;;;;;;17.33;12.05;;;;;;;31.77;20.03;94824.88;4958852;29;20051;-46
2021/10/23 05:38:37;;;;;;;17.55;12.13;;;;;;;32.13;19.60;94824.25;4958635;29;20047;-43
2021/10/23 05:41:04;;;;;;;14.93;11.90;;;;;;;32.15;19.81;94822.66;4958083;29;20058;-47
2021/10/23 05:43:31;;;;;;;15.77;12.10;;;;;;;32.34;19.95;94823.91;4958709;29;20044;-43
2021/10/23 05:45:58;;;;;;;14.07;11.55;;;;;;;32.65;19.86;94832.59;4949416;28;20051;-53
2021/10/23 05:48:25;;;;;;;15.32;11.70;;;;;;;32.88;19.60;94831.75;4958384;29;20450;-48
2021/10/23 05:50:52;;;;;;;16.70;11.80;;;;;;;33.01;19.42;94827.22;4957948;29;20051;-47
2021/10/23 05:53:19;;;;;;;19.52;12.68;;;;;;;32.92;19.20;94824.34;4958512;29;20057;-45
2021/10/23 05:55:46;;;;;;;17.85;12.55;;;;;;;32.96;19.37;94829.66;4952014;28;20063;-46
2021/10/23 05:58:13;;;;;;;16.77;12.60;;;;;;;32.79;19.33;94831.53;4939191;29;20478;-45
2021/10/23 06:00:49;;;;;;;16.73;13.07;;;;;;;32.74;19.37;94829.31;4952710;29;20043;-48
2021/10/23 06:03:20;;;;;;;19.27;12.93;;;;;;;32.80;19.53;94830.41;4958358;29;20051;-47
2021/10/23 06:05:48;;;;;;;19.73;13.95;;;;;;;32.72;19.82;94832.44;4958319;29;20058;-47
2021/10/23 06:08:15;;;;;;;19.77;13.05;;;;;;;32.73;19.49;94850.19;4958246;29;20058;-45
2021/10/23 06:10:43;;;;;;;20.25;14.07;;;;;;;32.88;19.38;94850.72;4957683;29;20047;-45
2021/10/23 06:13:15;;;;;;;17.60;13.68;;;;;;;32.85;19.86;94869.75;4958172;29;20059;-45
2021/10/23 06:15:42;;;;;;;16.23;13.18;;;;;;;32.90;19.53;94859.19;4958332;28;20054;-48
2021/10/23 06:18:09;;;;;;;14.73;13.07;;;;;;;32.89;19.50;94867.72;4958233;29;20327;-52
2021/10/23 06:20:37;;;;;;;14.00;12.50;;;;;;;32.82;20.11;94868.63;4957544;29;20059;-44
2021/10/23 06:23:04;;;;;;;16.83;13.05;;;;;;;33.19;19.14;94866.72;4958112;29;20043;-44
2021/10/23 06:25:31;;;;;;;14.75;12.18;;;;;;;33.25;19.43;94878.56;4957811;28;20063;-45
2021/10/23 06:27:59;;;;;;;13.88;11.55;;;;;;;33.25;19.29;94878.56;4957664;29;20454;-49
2021/10/23 06:30:26;;;;;;;16.20;11.45;;;;;;;33.93;18.57;94888.72;4957427;29;20050;-47
2021/10/23 06:32:55;;;;;;;14.63;10.85;;;;;;;34.08;18.89;94887.16;4942127;29;20051;-46
2021/10/23 06:35:22;;;;;;;11.23;10.07;;;;;;;34.22;18.52;94888.78;4957348;29;20057;-46
2021/10/23 06:37:50;;;;;;;12.55;10.65;;;;;;;33.82;18.89;94888.16;4957981;28;20050;-46
2021/10/23 06:40:17;;;;;;;11.30;10.18;;;;;;;32.56;19.97;94900.03;4957441;29;20047;-48
2021/10/23 06:42:45;;;;;;;11.88;10.68;;;;;;;32.35;20.10;94901.19;4945703;28;20055;-50
2021/10/23 06:45:14;;;;;;;14.70;10.55;;;;;;;32.24;20.80;94892.44;4945531;29;20051;-47
2021/10/23 06:47:41;;;;;;;11.65;10.45;;;;;;;32.45;20.05;94894.78;4957362;29;20451;-46
2021/10/23 06:50:10;;;;;;;13.57;9.90;;;;;;;32.53;20.40;94895.44;4957340;29;20330;-45
2021/10/23 06:52:38;;;;;;;14.10;10.60;;;;;;;32.30;20.22;94901.66;4957515;29;20047;-45
2021/10/23 06:55:06;;;;;;;14.13;10.63;;;;;;;32.22;20.79;94908.31;4956590;28;20055;-46
2021/10/23 06:57:33;;;;;;;12.80;10.68;;;;;;;32.60;20.17;94908.09;4957323;29;20450;-46
2021/10/23 07:00:00;;;;;;;11.65;10.23;;;;;;;31.98;20.75;94904.06;4956769;29;20055;-46
2021/10/23 07:02:27;;;;;;;13.32;10.70;;;;;;;32.66;20.25;94903.72;4957261;29;20063;-46
2021/10/23 07:04:54;;;;;;;13.57;10.50;;;;;;;32.60;20.07;94905.38;4957029;29;20051;-46
2021/10/23 07:07:23;;;;;;;12.60;10.60;;;;;;;32.59;20.24;94914.66;4957203;29;20047;-46
2021/10/23 07:09:50;;;;;;;16.30;11.40;;;;;;;32.21;20.17;94906.78;4955898;29;20051;-45
2021/10/23 07:12:17;;;;;;;15.25;11.02;;;;;;;32.53;19.66;94905.47;4956879;29;20051;-45
2021/10/23 07:14:44;;;;;;;15.85;11.88;;;;;;;33.61;19.29;94911.88;4956968;29;20054;-46
2021/10/23 07:17:11;;;;;;;15.00;11.95;;;;;;;33.71;18.90;94910.09;4956982;29;20083;-46
2021/10/23 07:19:38;;;;;;;16.13;11.73;;;;;;;33.66;19.21;94905.19;4956495;29;20051;-46
2021/10/23 07:22:05;;;;;;;17.52;12.20;;;;;;;34.06;18.37;94916.66;4956562;29;20047;-47
2021/10/23 07:24:32;;;;;;;14.80;11.27;;;;;;;34.15;18.48;94911.41;4956276;28;20051;-48
2021/10/23 07:26:59;;;;;;;12.40;10.93;;;;;;;34.31;18.32;94914.09;4947717;29;20062;-47
2021/10/23 07:29:26;;;;;;;11.88;10.02;;;;;;;34.22;18.28;94910.47;4938628;29;20047;-48
2021/10/23 07:31:53;;;;;;;11.25;9.63;;;;;;;34.23;18.17;94918.19;4956361;29;20043;-47
2021/10/23 07:34:21;;;;;;;13.35;10.88;;;;;;;34.61;17.87;94921.13;4955599;29;20397;-48
2021/10/23 07:36:48;;;;;;;13.32;10.40;;;;;;;34.51;17.99;94913.25;4956763;28;20054;-47
2021/10/23 07:39:15;;;;;;;11.10;9.63;;;;;;;34.48;17.74;94916.81;4955881;29;20051;-46
2021/10/23 07:41:42;;;;;;;10.75;9.75;;;;;;;34.59;17.85;94922.72;4955908;29;20446;-44
2021/10/23 07:44:13;;;;;;;13.63;9.98;;;;;;;34.52;17.99;94928.34;4957017;28;20360;-46
2021/10/23 07:46:40;;;;;;;12.85;10.23;;;;;;;34.27;18.42;94924.28;4956585;29;20741;-45
2021/10/23 07:49:08;;;;;;;11.63;9.93;;;;;;;34.59;17.95;94933.59;4956215;29;20059;-47
2021/10/23 07:51:35;;;;;;;11.98;9.25;;;;;;;34.59;17.94;94931.63;4952336;29;20074;-47
2021/10/23 07:54:08;;;;;;;12.25;9.63;;;;;;;34.61;17.82;94937.41;4955304;28;20127;-45
2021/10/23 07:56:39;;;;;;;11.18;8.73;;;;;;;34.51;18.14;94932.25;4956430;29;20051;-45
2021/10/23 07:59:07;;;;;;;12.52;9.40;;;;;;;34.56;17.92;94935.19;4956254;29;20053;-48
2021/10/23 08:01:34;;;;;;;11.02;8.85;;;;;;;34.75;17.90;94941.69;4955295;29;20501;-47
2021/10/23 08:04:01;;;;;;;13.20;10.23;;;;;;;34.90;17.66;94942.13;4956195;29;20051;-46
2021/10/23 08:06:29;;;;;;;13.18;10.43;;;;;;;35.09;17.73;94937.69;4956376;29;20067;-49
2021/10/23 08:08:56;;;;;;;14.95;10.75;;;;;;;35.06;17.74;94944.75;4956426;28;20047;-47
2021/10/23 08:11:23;;;;;;;11.93;10.70;;;;;;;35.07;17.63;94946.28;4955581;29;20047;-44
2021/10/23 08:13:50;;;;;;;13.50;10.63;;;;;;;35.08;17.88;94942.38;4955900;29;20054;-51
2021/10/23 08:16:17;;;;;;;11.90;10.57;;;;;;;34.82;17.96;94941.50;4956096;29;20374;-47
2021/10/23 08:18:44;;;;;;;10.65;9.63;;;;;;;35.02;17.92;94943.34;4955967;29;20358;-47
2021/10/23 08:21:11;;;;;;;12.18;10.82;;;;;;;34.88;17.76;94950.69;4955436;29;20059;-45
2021/10/23 08:23:38;;;;;;;12.10;10.82;;;;;;;34.96;17.84;94955.94;4955403;28;20348;-46
2021/10/23 08:26:05;;;;;;;13.02;11.60;;;;;;;34.47;18.27;94953.28;4956032;29;20047;-46
2021/10/23 08:28:33;;;;;;;11.65;10.45;;;;;;;34.56;18.03;94956.16;4955060;29;20050;-44
2021/10/23 08:31:00;;;;;;;12.10;10.35;;;;;;;34.61;18.14;94958.34;4955663;29;20047;-48
2021/10/23 08:33:28;;;;;;;12.40;10.48;;;;;;;34.68;18.02;94963.63;4956172;29;20459;-48
2021/10/23 08:35:55;;;;;;;13.20;11.20;;;;;;;34.39;18.21;94962.81;4956264;29;20054;-50
2021/10/23 08:38:23;;;;;;;13.90;10.73;;;;;;;34.84;17.92;94958.16;4956151;29;20074;-47
2021/10/23 08:40:53;;;;;;;13.68;10.55;;;;;;;35.00;17.76;94959.31;4955444;29;20051;-49
2021/10/23 08:43:21;;;;;;;14.15;11.15;;;;;;;34.63;18.19;94958.72;4956001;29;20354;-47
2021/10/23 08:45:48;;;;;;;13.48;11.10;;;;;;;34.21;18.42;94958.53;4956111;29;20343;-45
2021/10/23 08:48:16;;;;;;;11.98;10.25;;;;;;;34.30;18.64;94958.69;4954841;29;20054;-47
2021/10/23 08:50:43;;;;;;;13.27;10.70;;;;;;;34.13;18.99;94962.63;4955311;29;20051;-46
2021/10/23 08:53:11;;;;;;;12.00;10.57;;;;;;;34.27;18.69;94962.25;4955777;29;20051;-49
2021/10/23 08:55:38;;;;;;;11.85;10.13;;;;;;;34.23;18.58;94953.44;4953416;28;20062;-50
2021/10/23 08:58:08;;;;;;;11.15;9.98;;;;;;;34.28;18.83;94952.94;4955620;29;20051;-49
2021/10/23 09:00:35;;;;;;;13.30;10.23;;;;;;;34.07;19.24;94952.69;4954231;29;20043;-47
2021/10/23 09:03:02;;;;;;;12.43;10.18;;;;;;;34.21;18.90;94955.81;4955627;29;20047;-49
2021/10/23 09:05:33;;;;;;;13.45;10.32;;;;;;;34.17;18.81;94951.69;4956103;28;20055;-47
2021/10/23 09:08:00;;;;;;;12.93;10.07;;;;;;;34.64;18.79;94957.53;4958757;29;20047;-51
2021/10/23 09:10:31;;;;;;;11.00;9.93;;;;;;;34.62;18.76;94959.91;4958842;29;20051;-49
2021/10/23 09:13:06;;;;;;;10.23;9.20;;;;;;;34.53;18.91;94957.78;4958780;29;20054;-46
2021/10/23 09:15:37;;;;;;;11.52;10.13;;;;;;;34.72;18.43;94958.84;4957971;29;20059;-52
2021/10/23 09:18:04;;;;;;;11.40;9.40;;;;;;;34.71;18.68;94956.56;4959147;29;20051;-48
2021/10/23 09:20:37;;;;;;;13.48;9.93;;;;;;;34.62;19.04;94954.47;4958566;29;20501;-48
2021/10/23 09:23:06;;;;;;;9.80;8.88;;;;;;;34.58;19.09;94959.19;4958899;29;20055;-49
2021/10/23 09:25:35;;;;;;;9.77;8.38;;;;;;;34.87;18.59;94960.03;4971817;28;20063;-46
2021/10/23 09:28:06;;;;;;;10.43;7.50;;;;;;;34.77;18.73;94961.03;4958745;29;20043;-47
2021/10/23 09:30:35;;;;;;;;;;;;;;;34.89;18.83;94959.59;4958978;29;20051;-46
2021/10/23 09:33:07;;;;;;;7.70;6.90;;;;;;;34.70;19.15;94960.47;4959022;29;19918;-46
2021/10/23 09:35:38;;;;;;;7.93;6.65;;;;;;;34.77;18.92;94955.59;4958967;29;20051;-49
2021/10/23 09:38:07;;;;;;;8.55;6.28;;;;;;;35.09;18.51;94959.44;4958681;29;20058;-51
2021/10/23 09:40:36;;;;;;;8.65;7.18;;;;;;;35.07;18.58;94950.97;4957210;29;20055;-51
2021/10/23 09:43:06;;;;;;;6.45;5.85;;;;;;;35.00;18.66;94956.59;4958669;29;20043;-49
2021/10/23 09:45:34;;;;;;;8.23;5.65;;;;;;;35.14;18.38;94956.22;4958755;29;20058;-51
2021/10/23 09:48:10;;;;;;;7.35;5.28;;;;;;;34.75;18.87;94952.56;4958304;29;20442;-46
2021/10/23 09:50:37;;;;;;;6.75;5.47;;;;;;;34.68;18.78;94947.31;4958092;29;20082;-50
2021/10/23 09:53:04;;;;;;;10.80;5.25;;;;;;;35.01;18.66;94948.00;4958445;29;20043;-48
2021/10/23 09:55:52;;;;;;;6.72;5.47;;;;;;;35.12;18.57;94947.72;4957952;28;20059;-49
2021/10/23 09:58:20;;;;;;;6.15;5.10;;;;;;;35.18;19.13;94954.91;4959006;28;20054;-49
2021/10/23 10:00:48;;;;;;;8.05;5.63;;;;;;;34.91;19.21;94949.84;4958043;29;20047;-54
2021/10/23 10:03:19;;;;;;;6.90;5.93;;;;;;;35.00;19.11;94949.22;4951272;29;20059;-48
2021/10/23 10:05:59;;;;;;;6.20;5.60;;;;;;;34.70;19.50;94952.31;4939179;29;20074;-49
2021/10/23 10:08:28;;;;;;;5.97;5.22;;;;;;;34.79;19.60;94942.38;4938992;29;20348;-48
2021/10/23 10:10:57;;;;;;;7.00;6.30;;;;;;;33.91;20.98;94948.03;4942809;29;20059;-64
2021/10/23 10:13:25;;;;;;;183.77;154.13;;;;;;;35.87;18.79;94945.56;4945845;28;20058;-50
2021/10/23 10:15:54;;;;;;;24.30;20.08;;;;;;;35.76;18.46;94935.00;4946632;29;20051;-50
2021/10/23 10:18:23;;;;;;;8.75;7.82;;;;;;;35.34;19.01;94943.22;4957891;28;20051;-48
2021/10/23 10:20:52;;;;;;;7.57;6.05;;;;;;;35.66;18.46;94944.25;4957645;29;20051;-49
2021/10/23 10:23:33;;;;;;;7.50;6.07;;;;;;;35.58;18.53;94934.78;4957892;29;20043;-48
2021/10/23 10:26:24;;;;;;;10.50;6.55;;;;;;;35.82;18.43;94938.69;4940172;29;20066;-49
2021/10/23 10:29:07;;;;;;;13.82;6.57;;;;;;;35.73;18.18;94952.19;4939722;29;20059;-51
2021/10/23 10:31:44;;;;;;;9.43;6.65;;;;;;;35.36;18.79;94950.94;4950797;29;20047;-50
2021/10/23 10:34:15;;;;;;;10.52;6.95;;;;;;;35.37;18.42;94947.03;4957821;29;20085;-50
2021/10/23 10:42:57;;;;;;;7.82;6.20;;;;;;;35.25;18.74;94962.09;4938502;29;20048;-53
2021/10/23 10:45:51;;;;;;;6.97;5.63;;;;;;;35.19;18.58;94964.59;4938531;29;20047;-50
2021/10/23 10:48:22;;;;;;;6.55;5.07;;;;;;;35.12;18.65;94958.56;4957487;29;20051;-52
2021/10/23 10:50:54;;;;;;;7.60;5.47;;;;;;;35.35;18.65;94955.63;4947929;29;20054;-49
2021/10/23 10:53:22;;;;;;;5.53;4.85;;;;;;;35.28;18.55;94966.66;4956224;29;20055;-48
2021/10/23 10:56:14;;;;;;;6.90;5.75;;;;;;;35.32;18.73;94953.75;4956980;28;20543;-49
2021/10/23 10:58:47;;;;;;;6.38;5.60;;;;;;;35.35;18.84;94961.06;4957588;29;20454;-49
2021/10/23 11:01:19;;;;;;;6.07;5.47;;;;;;;35.16;19.28;94964.69;4955929;29;20058;-48
2021/10/23 11:03:52;;;;;;;5.78;5.05;;;;;;;35.21;19.42;94966.88;4957117;29;20058;-50
2021/10/23 11:09:16;;;;;;;6.95;5.40;;;;;;;35.06;19.82;94954.88;4957272;28;20058;-47
2021/10/23 11:11:43;;;;;;;7.30;6.47;;;;;;;34.98;20.11;94956.25;4956891;28;20458;-48
2021/10/23 11:14:21;;;;;;;6.95;6.25;;;;;;;35.11;19.96;94957.81;4957282;29;20051;-54
2021/10/23 11:19:41;;;;;;;9.00;6.03;;;;;;;35.10;19.96;94966.38;4956908;29;20063;-46
2021/10/23 11:22:27;;;;;;;6.80;5.90;;;;;;;35.04;20.08;94949.09;4956079;29;20355;-46
2021/10/23 11:25:05;;;;;;;7.18;5.70;;;;;;;35.08;20.16;94958.69;4956363;28;20047;-46
2021/10/23 11:27:45;;;;;;;7.97;6.10;;;;;;;35.11;20.18;94957.06;4956543;29;20450;-45
2021/10/23 11:30:27;;;;;;;9.88;6.07;;;;;;;35.13;20.11;94955.44;4956139;28;20059;-47
2021/10/23 11:32:54;;;;;;;;;;;;;;;35.01;20.25;94948.00;4957282;29;20043;-46
2021/10/23 11:35:37;;;;;;;7.70;5.85;;;;;;;35.11;20.20;94957.81;4956751;29;19925;-46
2021/10/23 11:38:10;;;;;;;8.07;5.75;;;;;;;35.16;20.04;94953.81;4955597;29;20058;-47
2021/10/23 11:40:39;;;;;;;7.15;5.60;;;;;;;35.25;20.09;94959.38;4956265;29;20051;-48